sensor_id;sensor_type;location;lat;lon;timestamp;P1;durP1;ratioP1;P2;durP2;ratioP2
18883;SDS011;9574;47.282;9.640;2022-10-30T00:00:58;7.30;;;2.80;;
18883;SDS011;9574;47.282;9.640;2022-10-30T00:03:25;8.07;;;2.60;;
18883;SDS011;9574;47.282;9.640;2022-10-30T00:05:52;12.17;;;3.43;;
18883;SDS011;9574;47.282;9.640;2022-10-30T00:08:21;7.10;;;2.70;;
18883;SDS011;9574;47.282;9.640;2022-10-30T00:10:50;15.50;;;3.57;;
18883;SDS011;9574;47.282;9.640;2022-10-30T00:13:18;4.30;;;2.00;;
18883;SDS011;9574;47.282;9.640;2022-10-30T00:15:46;5.07;;;2.70;;
18883;SDS011;9574;47.282;9.640;2022-10-30T00:18:14;5.37;;;2.00;;
18883;SDS011;9574;47.282;9.640;2022-10-30T00:20:41;9.57;;;3.13;;
18883;SDS011;9574;47.282;9.640;2022-10-30T00:23:08;14.10;;;3.17;;
18883;SDS011;9574;47.282;9.640;2022-10-30T00:25:36;6.97;;;2.33;;
18883;SDS011;9574;47.282;9.640;2022-10-30T00:28:04;9.13;;;2.40;;
18883;SDS011;9574;47.282;9.640;2022-10-30T00:30:31;8.33;;;2.13;;
18883;SDS011;9574;47.282;9.640;2022-10-30T00:32:59;11.30;;;2.40;;
18883;SDS011;9574;47.282;9.640;2022-10-30T00:35:26;9.07;;;2.80;;
18883;SDS011;9574;47.282;9.640;2022-10-30T00:37:53;9.73;;;2.43;;
18883;SDS011;9574;47.282;9.640;2022-10-30T00:40:20;4.77;;;2.07;;
18883;SDS011;9574;47.282;9.640;2022-10-30T00:42:49;9.60;;;2.10;;
18883;SDS011;9574;47.282;9.640;2022-10-30T00:45:17;6.47;;;1.97;;
18883;SDS011;9574;47.282;9.640;2022-10-30T00:47:45;4.83;;;2.80;;
18883;SDS011;9574;47.282;9.640;2022-10-30T00:50:18;7.40;;;2.07;;
18883;SDS011;9574;47.282;9.640;2022-10-30T00:52:49;8.13;;;2.13;;
18883;SDS011;9574;47.282;9.640;2022-10-30T00:55:20;9.73;;;2.23;;
18883;SDS011;9574;47.282;9.640;2022-10-30T00:57:53;6.93;;;1.93;;
18883;SDS011;9574;47.282;9.640;2022-10-30T01:00:21;7.33;;;2.43;;
18883;SDS011;9574;47.282;9.640;2022-10-30T01:02:49;6.63;;;2.30;;
18883;SDS011;9574;47.282;9.640;2022-10-30T01:05:19;6.20;;;2.20;;
18883;SDS011;9574;47.282;9.640;2022-10-30T01:07:50;9.60;;;2.13;;
18883;SDS011;9574;47.282;9.640;2022-10-30T01:10:17;8.90;;;2.10;;
18883;SDS011;9574;47.282;9.640;2022-10-30T01:12:44;6.07;;;2.30;;
18883;SDS011;9574;47.282;9.640;2022-10-30T01:15:14;6.73;;;2.73;;
18883;SDS011;9574;47.282;9.640;2022-10-30T01:20:46;7.37;;;1.97;;
18883;SDS011;9574;47.282;9.640;2022-10-30T01:23:31;8.63;;;2.07;;
18883;SDS011;9574;47.282;9.640;2022-10-30T01:26:10;6.50;;;1.93;;
18883;SDS011;9574;47.282;9.640;2022-10-30T01:28:49;5.43;;;2.00;;
18883;SDS011;9574;47.282;9.640;2022-10-30T01:31:40;3.17;;;1.93;;
18883;SDS011;9574;47.282;9.640;2022-10-30T01:34:17;4.60;;;1.70;;
18883;SDS011;9574;47.282;9.640;2022-10-30T01:36:48;9.53;;;2.30;;
18883;SDS011;9574;47.282;9.640;2022-10-30T01:39:20;10.43;;;2.33;;
18883;SDS011;9574;47.282;9.640;2022-10-30T01:41:49;2.73;;;2.00;;
18883;SDS011;9574;47.282;9.640;2022-10-30T01:44:17;9.33;;;2.57;;
18883;SDS011;9574;47.282;9.640;2022-10-30T01:49:52;5.53;;;2.30;;
18883;SDS011;9574;47.282;9.640;2022-10-30T01:52:41;4.37;;;2.40;;
18883;SDS011;9574;47.282;9.640;2022-10-30T01:55:17;5.33;;;2.50;;
18883;SDS011;9574;47.282;9.640;2022-10-30T01:57:57;8.47;;;2.53;;
18883;SDS011;9574;47.282;9.640;2022-10-30T02:00:30;5.07;;;2.20;;
18883;SDS011;9574;47.282;9.640;2022-10-30T02:02:58;15.37;;;2.27;;
18883;SDS011;9574;47.282;9.640;2022-10-30T02:05:28;7.43;;;2.37;;
18883;SDS011;9574;47.282;9.640;2022-10-30T02:07:57;7.30;;;1.93;;
18883;SDS011;9574;47.282;9.640;2022-10-30T02:10:24;5.07;;;2.00;;
18883;SDS011;9574;47.282;9.640;2022-10-30T02:12:52;6.97;;;2.30;;
18883;SDS011;9574;47.282;9.640;2022-10-30T02:15:19;4.97;;;2.20;;
18883;SDS011;9574;47.282;9.640;2022-10-30T02:17:46;4.83;;;1.97;;
18883;SDS011;9574;47.282;9.640;2022-10-30T02:20:15;6.27;;;2.03;;
18883;SDS011;9574;47.282;9.640;2022-10-30T02:22:43;4.03;;;1.93;;
18883;SDS011;9574;47.282;9.640;2022-10-30T02:25:10;4.60;;;1.93;;
18883;SDS011;9574;47.282;9.640;2022-10-30T02:27:37;4.93;;;2.53;;
18883;SDS011;9574;47.282;9.640;2022-10-30T02:30:05;11.73;;;2.57;;
18883;SDS011;9574;47.282;9.640;2022-10-30T02:32:33;4.37;;;2.57;;
18883;SDS011;9574;47.282;9.640;2022-10-30T02:35:00;6.83;;;2.03;;
18883;SDS011;9574;47.282;9.640;2022-10-30T02:37:28;2.70;;;1.80;;
18883;SDS011;9574;47.282;9.640;2022-10-30T02:39:56;7.10;;;2.30;;
18883;SDS011;9574;47.282;9.640;2022-10-30T02:42:24;9.93;;;2.70;;
18883;SDS011;9574;47.282;9.640;2022-10-30T02:44:51;5.37;;;2.47;;
18883;SDS011;9574;47.282;9.640;2022-10-30T02:47:18;9.23;;;2.30;;
18883;SDS011;9574;47.282;9.640;2022-10-30T02:49:45;7.63;;;2.70;;
18883;SDS011;9574;47.282;9.640;2022-10-30T02:52:12;8.07;;;2.27;;
18883;SDS011;9574;47.282;9.640;2022-10-30T02:54:40;5.97;;;2.40;;
18883;SDS011;9574;47.282;9.640;2022-10-30T02:57:07;10.47;;;2.07;;
18883;SDS011;9574;47.282;9.640;2022-10-30T02:59:35;3.67;;;2.37;;
18883;SDS011;9574;47.282;9.640;2022-10-30T03:02:02;4.40;;;1.83;;
18883;SDS011;9574;47.282;9.640;2022-10-30T03:04:29;8.07;;;2.13;;
18883;SDS011;9574;47.282;9.640;2022-10-30T03:06:56;6.70;;;2.53;;
18883;SDS011;9574;47.282;9.640;2022-10-30T03:09:23;7.37;;;2.03;;
18883;SDS011;9574;47.282;9.640;2022-10-30T03:11:51;10.10;;;3.03;;
18883;SDS011;9574;47.282;9.640;2022-10-30T03:14:18;5.30;;;2.10;;
18883;SDS011;9574;47.282;9.640;2022-10-30T03:16:45;5.07;;;2.00;;
18883;SDS011;9574;47.282;9.640;2022-10-30T03:19:12;3.40;;;2.13;;
18883;SDS011;9574;47.282;9.640;2022-10-30T03:21:39;4.20;;;1.90;;
18883;SDS011;9574;47.282;9.640;2022-10-30T03:24:05;5.33;;;2.40;;
18883;SDS011;9574;47.282;9.640;2022-10-30T03:26:32;6.10;;;2.90;;
18883;SDS011;9574;47.282;9.640;2022-10-30T03:29:01;7.27;;;2.30;;
18883;SDS011;9574;47.282;9.640;2022-10-30T03:31:29;4.60;;;2.37;;
18883;SDS011;9574;47.282;9.640;2022-10-30T03:33:56;5.37;;;2.07;;
18883;SDS011;9574;47.282;9.640;2022-10-30T03:36:23;3.83;;;2.23;;
18883;SDS011;9574;47.282;9.640;2022-10-30T03:38:51;5.30;;;1.70;;
18883;SDS011;9574;47.282;9.640;2022-10-30T03:41:18;3.33;;;2.20;;
18883;SDS011;9574;47.282;9.640;2022-10-30T03:43:45;7.70;;;2.20;;
18883;SDS011;9574;47.282;9.640;2022-10-30T03:46:13;5.80;;;2.20;;
18883;SDS011;9574;47.282;9.640;2022-10-30T03:48:40;4.77;;;2.30;;
18883;SDS011;9574;47.282;9.640;2022-10-30T03:51:07;6.80;;;2.00;;
18883;SDS011;9574;47.282;9.640;2022-10-30T03:53:34;11.23;;;2.60;;
18883;SDS011;9574;47.282;9.640;2022-10-30T03:56:02;5.00;;;2.03;;
18883;SDS011;9574;47.282;9.640;2022-10-30T03:58:30;3.83;;;1.80;;
18883;SDS011;9574;47.282;9.640;2022-10-30T04:00:59;6.10;;;2.17;;
18883;SDS011;9574;47.282;9.640;2022-10-30T04:03:28;6.53;;;2.43;;
18883;SDS011;9574;47.282;9.640;2022-10-30T04:05:55;5.83;;;1.97;;
18883;SDS011;9574;47.282;9.640;2022-10-30T04:08:22;5.07;;;1.80;;
18883;SDS011;9574;47.282;9.640;2022-10-30T04:10:49;4.47;;;2.30;;
18883;SDS011;9574;47.282;9.640;2022-10-30T04:13:16;6.73;;;2.43;;
18883;SDS011;9574;47.282;9.640;2022-10-30T04:15:45;5.43;;;1.80;;
18883;SDS011;9574;47.282;9.640;2022-10-30T04:18:13;4.80;;;2.23;;
18883;SDS011;9574;47.282;9.640;2022-10-30T04:20:42;8.47;;;2.13;;
18883;SDS011;9574;47.282;9.640;2022-10-30T04:23:11;7.87;;;2.13;;
18883;SDS011;9574;47.282;9.640;2022-10-30T04:25:39;6.27;;;2.07;;
18883;SDS011;9574;47.282;9.640;2022-10-30T04:28:07;4.83;;;1.87;;
18883;SDS011;9574;47.282;9.640;2022-10-30T04:30:34;5.53;;;2.20;;
18883;SDS011;9574;47.282;9.640;2022-10-30T04:33:01;7.77;;;2.60;;
18883;SDS011;9574;47.282;9.640;2022-10-30T04:35:30;6.47;;;3.50;;
18883;SDS011;9574;47.282;9.640;2022-10-30T04:38:00;7.60;;;3.57;;
18883;SDS011;9574;47.282;9.640;2022-10-30T04:40:28;6.23;;;3.80;;
18883;SDS011;9574;47.282;9.640;2022-10-30T04:42:57;6.83;;;3.03;;
18883;SDS011;9574;47.282;9.640;2022-10-30T04:45:25;8.03;;;3.07;;
18883;SDS011;9574;47.282;9.640;2022-10-30T04:47:52;14.43;;;2.83;;
18883;SDS011;9574;47.282;9.640;2022-10-30T04:50:24;7.07;;;2.70;;
18883;SDS011;9574;47.282;9.640;2022-10-30T04:52:57;7.77;;;2.40;;
18883;SDS011;9574;47.282;9.640;2022-10-30T04:55:26;5.93;;;2.30;;
18883;SDS011;9574;47.282;9.640;2022-10-30T04:57:56;6.33;;;1.97;;
18883;SDS011;9574;47.282;9.640;2022-10-30T05:00:24;3.40;;;2.00;;
18883;SDS011;9574;47.282;9.640;2022-10-30T05:02:52;8.33;;;2.70;;
18883;SDS011;9574;47.282;9.640;2022-10-30T05:05:19;4.27;;;2.07;;
18883;SDS011;9574;47.282;9.640;2022-10-30T05:07:46;4.77;;;2.03;;
18883;SDS011;9574;47.282;9.640;2022-10-30T05:10:14;5.87;;;2.17;;
18883;SDS011;9574;47.282;9.640;2022-10-30T05:12:42;15.00;;;2.80;;
18883;SDS011;9574;47.282;9.640;2022-10-30T05:15:10;5.80;;;2.37;;
18883;SDS011;9574;47.282;9.640;2022-10-30T05:17:38;13.50;;;2.97;;
18883;SDS011;9574;47.282;9.640;2022-10-30T05:20:06;6.20;;;1.77;;
18883;SDS011;9574;47.282;9.640;2022-10-30T05:22:33;5.97;;;2.37;;
18883;SDS011;9574;47.282;9.640;2022-10-30T05:25:00;6.30;;;2.20;;
18883;SDS011;9574;47.282;9.640;2022-10-30T05:27:29;3.70;;;1.63;;
18883;SDS011;9574;47.282;9.640;2022-10-30T05:29:56;9.90;;;2.33;;
18883;SDS011;9574;47.282;9.640;2022-10-30T05:32:23;4.10;;;2.10;;
18883;SDS011;9574;47.282;9.640;2022-10-30T05:34:49;6.77;;;2.53;;
18883;SDS011;9574;47.282;9.640;2022-10-30T05:37:17;13.07;;;2.10;;
18883;SDS011;9574;47.282;9.640;2022-10-30T05:39:44;4.47;;;1.90;;
18883;SDS011;9574;47.282;9.640;2022-10-30T05:42:11;7.30;;;2.60;;
18883;SDS011;9574;47.282;9.640;2022-10-30T05:44:39;8.93;;;2.37;;
18883;SDS011;9574;47.282;9.640;2022-10-30T05:47:06;12.00;;;2.70;;
18883;SDS011;9574;47.282;9.640;2022-10-30T05:49:33;4.47;;;2.67;;
18883;SDS011;9574;47.282;9.640;2022-10-30T05:52:00;6.70;;;2.90;;
18883;SDS011;9574;47.282;9.640;2022-10-30T05:54:27;9.67;;;2.50;;
18883;SDS011;9574;47.282;9.640;2022-10-30T05:56:55;10.63;;;2.90;;
18883;SDS011;9574;47.282;9.640;2022-10-30T05:59:23;7.77;;;2.73;;
18883;SDS011;9574;47.282;9.640;2022-10-30T06:01:51;5.90;;;2.67;;
18883;SDS011;9574;47.282;9.640;2022-10-30T06:04:18;12.73;;;2.80;;
18883;SDS011;9574;47.282;9.640;2022-10-30T06:06:45;9.33;;;2.53;;
18883;SDS011;9574;47.282;9.640;2022-10-30T06:09:12;5.00;;;2.73;;
18883;SDS011;9574;47.282;9.640;2022-10-30T06:11:39;8.50;;;3.10;;
18883;SDS011;9574;47.282;9.640;2022-10-30T06:14:06;18.23;;;2.80;;
18883;SDS011;9574;47.282;9.640;2022-10-30T06:16:33;6.27;;;3.17;;
18883;SDS011;9574;47.282;9.640;2022-10-30T06:19:01;7.43;;;3.57;;
18883;SDS011;9574;47.282;9.640;2022-10-30T06:21:28;13.57;;;3.57;;
18883;SDS011;9574;47.282;9.640;2022-10-30T06:23:55;4.60;;;2.43;;
18883;SDS011;9574;47.282;9.640;2022-10-30T06:26:23;7.23;;;2.50;;
18883;SDS011;9574;47.282;9.640;2022-10-30T06:28:49;7.93;;;3.70;;
18883;SDS011;9574;47.282;9.640;2022-10-30T06:31:16;6.43;;;2.60;;
18883;SDS011;9574;47.282;9.640;2022-10-30T06:33:43;6.80;;;2.93;;
18883;SDS011;9574;47.282;9.640;2022-10-30T06:36:12;7.13;;;3.00;;
18883;SDS011;9574;47.282;9.640;2022-10-30T06:38:39;6.73;;;3.17;;
18883;SDS011;9574;47.282;9.640;2022-10-30T06:41:06;9.70;;;3.10;;
18883;SDS011;9574;47.282;9.640;2022-10-30T06:43:33;12.67;;;3.57;;
18883;SDS011;9574;47.282;9.640;2022-10-30T06:46:00;6.77;;;2.90;;
18883;SDS011;9574;47.282;9.640;2022-10-30T06:48:27;9.57;;;3.73;;
18883;SDS011;9574;47.282;9.640;2022-10-30T06:50:54;7.40;;;4.20;;
18883;SDS011;9574;47.282;9.640;2022-10-30T06:53:23;6.37;;;3.60;;
18883;SDS011;9574;47.282;9.640;2022-10-30T06:55:53;5.43;;;3.67;;
18883;SDS011;9574;47.282;9.640;2022-10-30T06:58:21;8.60;;;3.57;;
18883;SDS011;9574;47.282;9.640;2022-10-30T07:03:24;8.87;;;3.40;;
18883;SDS011;9574;47.282;9.640;2022-10-30T07:05:52;8.97;;;3.07;;
18883;SDS011;9574;47.282;9.640;2022-10-30T07:08:18;6.13;;;2.97;;
18883;SDS011;9574;47.282;9.640;2022-10-30T07:10:47;7.70;;;4.37;;
18883;SDS011;9574;47.282;9.640;2022-10-30T07:13:14;6.00;;;3.00;;
18883;SDS011;9574;47.282;9.640;2022-10-30T07:15:41;12.77;;;3.57;;
18883;SDS011;9574;47.282;9.640;2022-10-30T07:18:08;9.30;;;3.37;;
18883;SDS011;9574;47.282;9.640;2022-10-30T07:20:35;5.97;;;3.00;;
18883;SDS011;9574;47.282;9.640;2022-10-30T07:23:02;8.00;;;3.57;;
18883;SDS011;9574;47.282;9.640;2022-10-30T07:25:30;8.67;;;3.07;;
18883;SDS011;9574;47.282;9.640;2022-10-30T07:27:58;9.23;;;3.40;;
18883;SDS011;9574;47.282;9.640;2022-10-30T07:30:26;6.07;;;3.47;;
18883;SDS011;9574;47.282;9.640;2022-10-30T07:32:56;3.73;;;2.07;;
18883;SDS011;9574;47.282;9.640;2022-10-30T07:35:24;5.53;;;2.50;;
18883;SDS011;9574;47.282;9.640;2022-10-30T07:37:51;4.43;;;3.10;;
18883;SDS011;9574;47.282;9.640;2022-10-30T07:40:18;5.30;;;2.57;;
18883;SDS011;9574;47.282;9.640;2022-10-30T07:42:46;7.83;;;2.20;;
18883;SDS011;9574;47.282;9.640;2022-10-30T07:45:14;6.03;;;2.70;;
18883;SDS011;9574;47.282;9.640;2022-10-30T07:47:41;7.63;;;2.37;;
18883;SDS011;9574;47.282;9.640;2022-10-30T07:50:09;4.57;;;2.60;;
18883;SDS011;9574;47.282;9.640;2022-10-30T07:52:36;7.57;;;3.13;;
18883;SDS011;9574;47.282;9.640;2022-10-30T07:55:03;6.03;;;3.10;;
18883;SDS011;9574;47.282;9.640;2022-10-30T07:57:33;9.87;;;3.77;;
18883;SDS011;9574;47.282;9.640;2022-10-30T08:00:02;11.17;;;4.47;;
18883;SDS011;9574;47.282;9.640;2022-10-30T08:02:31;10.77;;;4.00;;
18883;SDS011;9574;47.282;9.640;2022-10-30T08:04:58;13.00;;;3.53;;
18883;SDS011;9574;47.282;9.640;2022-10-30T08:07:28;7.10;;;3.97;;
18883;SDS011;9574;47.282;9.640;2022-10-30T08:09:55;5.70;;;3.30;;
18883;SDS011;9574;47.282;9.640;2022-10-30T08:12:22;6.47;;;3.03;;
18883;SDS011;9574;47.282;9.640;2022-10-30T08:14:50;8.07;;;2.97;;
18883;SDS011;9574;47.282;9.640;2022-10-30T08:17:17;10.37;;;4.23;;
18883;SDS011;9574;47.282;9.640;2022-10-30T08:19:46;11.00;;;5.03;;
18883;SDS011;9574;47.282;9.640;2022-10-30T08:22:13;13.50;;;6.73;;
18883;SDS011;9574;47.282;9.640;2022-10-30T08:24:40;9.80;;;5.43;;
18883;SDS011;9574;47.282;9.640;2022-10-30T08:27:08;9.53;;;5.17;;
18883;SDS011;9574;47.282;9.640;2022-10-30T08:29:35;8.93;;;4.43;;
18883;SDS011;9574;47.282;9.640;2022-10-30T08:32:02;11.57;;;5.40;;
18883;SDS011;9574;47.282;9.640;2022-10-30T08:34:29;12.67;;;5.37;;
18883;SDS011;9574;47.282;9.640;2022-10-30T08:36:59;11.40;;;5.53;;
18883;SDS011;9574;47.282;9.640;2022-10-30T08:39:26;7.87;;;5.53;;
18883;SDS011;9574;47.282;9.640;2022-10-30T08:41:55;10.03;;;5.40;;
18883;SDS011;9574;47.282;9.640;2022-10-30T08:44:23;10.67;;;5.40;;
18883;SDS011;9574;47.282;9.640;2022-10-30T08:46:50;9.33;;;4.90;;
18883;SDS011;9574;47.282;9.640;2022-10-30T08:49:17;9.67;;;4.53;;
18883;SDS011;9574;47.282;9.640;2022-10-30T08:51:44;8.50;;;4.80;;
18883;SDS011;9574;47.282;9.640;2022-10-30T08:54:13;8.30;;;5.10;;
18883;SDS011;9574;47.282;9.640;2022-10-30T08:56:39;12.10;;;4.53;;
18883;SDS011;9574;47.282;9.640;2022-10-30T08:59:06;10.80;;;4.63;;
18883;SDS011;9574;47.282;9.640;2022-10-30T09:01:33;6.90;;;4.30;;
18883;SDS011;9574;47.282;9.640;2022-10-30T09:04:01;10.27;;;4.95;;
18883;SDS011;9574;47.282;9.640;2022-10-30T09:06:29;6.68;;;4.25;;
18883;SDS011;9574;47.282;9.640;2022-10-30T09:08:56;8.18;;;4.38;;
18883;SDS011;9574;47.282;9.640;2022-10-30T09:11:24;9.18;;;4.38;;
18883;SDS011;9574;47.282;9.640;2022-10-30T09:13:51;9.85;;;4.45;;
18883;SDS011;9574;47.282;9.640;2022-10-30T09:16:18;8.18;;;4.40;;
18883;SDS011;9574;47.282;9.640;2022-10-30T09:18:45;13.40;;;5.50;;
18883;SDS011;9574;47.282;9.640;2022-10-30T09:21:12;10.30;;;6.00;;
18883;SDS011;9574;47.282;9.640;2022-10-30T09:23:41;8.88;;;4.30;;
18883;SDS011;9574;47.282;9.640;2022-10-30T09:26:08;14.10;;;4.53;;
18883;SDS011;9574;47.282;9.640;2022-10-30T09:28:37;9.25;;;3.90;;
18883;SDS011;9574;47.282;9.640;2022-10-30T09:31:04;9.20;;;4.32;;
18883;SDS011;9574;47.282;9.640;2022-10-30T09:33:31;12.20;;;4.90;;
18883;SDS011;9574;47.282;9.640;2022-10-30T09:35:58;9.32;;;4.25;;
18883;SDS011;9574;47.282;9.640;2022-10-30T09:38:26;8.88;;;5.18;;
18883;SDS011;9574;47.282;9.640;2022-10-30T09:40:59;9.75;;;5.10;;
18883;SDS011;9574;47.282;9.640;2022-10-30T09:43:48;10.18;;;4.10;;
18883;SDS011;9574;47.282;9.640;2022-10-30T09:46:29;8.07;;;4.82;;
18883;SDS011;9574;47.282;9.640;2022-10-30T09:52:10;10.52;;;4.95;;
18883;SDS011;9574;47.282;9.640;2022-10-30T09:54:49;8.18;;;4.75;;
18883;SDS011;9574;47.282;9.640;2022-10-30T09:57:31;6.70;;;4.07;;
18883;SDS011;9574;47.282;9.640;2022-10-30T10:00:08;10.15;;;3.80;;
18883;SDS011;9574;47.282;9.640;2022-10-30T10:02:41;6.72;;;3.75;;
18883;SDS011;9574;47.282;9.640;2022-10-30T10:05:20;7.82;;;4.40;;
18883;SDS011;9574;47.282;9.640;2022-10-30T10:07:51;9.85;;;5.05;;
18883;SDS011;9574;47.282;9.640;2022-10-30T10:10:24;7.93;;;5.20;;
18883;SDS011;9574;47.282;9.640;2022-10-30T10:12:59;10.80;;;6.03;;
18883;SDS011;9574;47.282;9.640;2022-10-30T10:15:31;10.75;;;5.57;;
18883;SDS011;9574;47.282;9.640;2022-10-30T10:18:05;8.85;;;4.82;;
18883;SDS011;9574;47.282;9.640;2022-10-30T10:20:39;13.68;;;5.03;;
18883;SDS011;9574;47.282;9.640;2022-10-30T10:23:15;7.70;;;4.22;;
18883;SDS011;9574;47.282;9.640;2022-10-30T10:25:45;7.90;;;5.30;;
18883;SDS011;9574;47.282;9.640;2022-10-30T10:28:20;9.18;;;4.95;;
18883;SDS011;9574;47.282;9.640;2022-10-30T10:31:05;11.32;;;7.72;;
18883;SDS011;9574;47.282;9.640;2022-10-30T10:33:45;10.13;;;5.05;;
18883;SDS011;9574;47.282;9.640;2022-10-30T10:36:22;7.53;;;4.38;;
18883;SDS011;9574;47.282;9.640;2022-10-30T10:41:56;9.18;;;4.95;;
18883;SDS011;9574;47.282;9.640;2022-10-30T10:44:36;9.80;;;6.07;;
18883;SDS011;9574;47.282;9.640;2022-10-30T10:47:21;6.07;;;4.78;;
18883;SDS011;9574;47.282;9.640;2022-10-30T10:50:02;8.90;;;5.10;;
18883;SDS011;9574;47.282;9.640;2022-10-30T10:52:41;8.07;;;5.22;;
18883;SDS011;9574;47.282;9.640;2022-10-30T10:55:13;8.90;;;5.40;;
18883;SDS011;9574;47.282;9.640;2022-10-30T10:57:43;6.75;;;5.20;;
18883;SDS011;9574;47.282;9.640;2022-10-30T11:00:15;12.52;;;5.03;;
18883;SDS011;9574;47.282;9.640;2022-10-30T11:02:46;9.02;;;5.20;;
18883;SDS011;9574;47.282;9.640;2022-10-30T11:05:20;10.90;;;6.15;;
18883;SDS011;9574;47.282;9.640;2022-10-30T11:07:52;8.50;;;5.90;;
18883;SDS011;9574;47.282;9.640;2022-10-30T11:10:24;10.30;;;5.80;;
18883;SDS011;9574;47.282;9.640;2022-10-30T11:12:51;13.77;;;8.00;;
18883;SDS011;9574;47.282;9.640;2022-10-30T11:15:20;10.00;;;5.60;;
18883;SDS011;9574;47.282;9.640;2022-10-30T11:17:59;7.93;;;5.82;;
18883;SDS011;9574;47.282;9.640;2022-10-30T11:20:30;10.50;;;5.45;;
18883;SDS011;9574;47.282;9.640;2022-10-30T11:23:03;7.43;;;5.05;;
18883;SDS011;9574;47.282;9.640;2022-10-30T11:26:00;7.28;;;5.72;;
18883;SDS011;9574;47.282;9.640;2022-10-30T11:28:35;6.85;;;5.07;;
18883;SDS011;9574;47.282;9.640;2022-10-30T11:31:16;14.18;;;6.22;;
18883;SDS011;9574;47.282;9.640;2022-10-30T11:33:46;9.05;;;5.93;;
18883;SDS011;9574;47.282;9.640;2022-10-30T11:36:13;12.52;;;5.70;;
18883;SDS011;9574;47.282;9.640;2022-10-30T11:38:41;7.35;;;5.28;;
18883;SDS011;9574;47.282;9.640;2022-10-30T11:41:08;5.88;;;4.43;;
18883;SDS011;9574;47.282;9.640;2022-10-30T11:43:36;9.27;;;5.35;;
18883;SDS011;9574;47.282;9.640;2022-10-30T11:46:05;8.23;;;5.57;;
18883;SDS011;9574;47.282;9.640;2022-10-30T11:48:36;9.45;;;4.47;;
18883;SDS011;9574;47.282;9.640;2022-10-30T11:51:05;5.22;;;4.25;;
18883;SDS011;9574;47.282;9.640;2022-10-30T11:53:33;8.43;;;4.65;;
18883;SDS011;9574;47.282;9.640;2022-10-30T11:56:09;6.57;;;4.93;;
18883;SDS011;9574;47.282;9.640;2022-10-30T11:58:41;8.55;;;4.90;;
18883;SDS011;9574;47.282;9.640;2022-10-30T12:01:21;8.10;;;4.95;;
18883;SDS011;9574;47.282;9.640;2022-10-30T12:03:49;8.13;;;5.50;;
18883;SDS011;9574;47.282;9.640;2022-10-30T12:06:18;8.20;;;5.10;;
18883;SDS011;9574;47.282;9.640;2022-10-30T12:09:00;8.60;;;5.07;;
18883;SDS011;9574;47.282;9.640;2022-10-30T12:11:29;7.72;;;4.72;;
18883;SDS011;9574;47.282;9.640;2022-10-30T12:13:59;8.93;;;4.82;;
18883;SDS011;9574;47.282;9.640;2022-10-30T12:16:26;10.40;;;5.50;;
18883;SDS011;9574;47.282;9.640;2022-10-30T12:18:58;9.88;;;5.88;;
18883;SDS011;9574;47.282;9.640;2022-10-30T12:21:29;5.40;;;4.28;;
18883;SDS011;9574;47.282;9.640;2022-10-30T12:24:02;7.63;;;5.18;;
18883;SDS011;9574;47.282;9.640;2022-10-30T12:26:33;9.35;;;4.97;;
18883;SDS011;9574;47.282;9.640;2022-10-30T12:29:03;9.75;;;5.45;;
18883;SDS011;9574;47.282;9.640;2022-10-30T12:31:34;8.82;;;5.22;;
18883;SDS011;9574;47.282;9.640;2022-10-30T12:34:17;8.25;;;4.95;;
18883;SDS011;9574;47.282;9.640;2022-10-30T12:37:04;7.15;;;4.50;;
18883;SDS011;9574;47.282;9.640;2022-10-30T12:39:41;8.82;;;5.47;;
18883;SDS011;9574;47.282;9.640;2022-10-30T12:42:19;8.60;;;5.30;;
18883;SDS011;9574;47.282;9.640;2022-10-30T12:44:47;10.02;;;5.20;;
18883;SDS011;9574;47.282;9.640;2022-10-30T12:47:19;8.52;;;4.85;;
18883;SDS011;9574;47.282;9.640;2022-10-30T12:49:55;8.40;;;5.32;;
18883;SDS011;9574;47.282;9.640;2022-10-30T12:52:30;9.32;;;5.45;;
18883;SDS011;9574;47.282;9.640;2022-10-30T12:55:01;9.85;;;4.60;;
18883;SDS011;9574;47.282;9.640;2022-10-30T12:57:35;7.25;;;4.90;;
18883;SDS011;9574;47.282;9.640;2022-10-30T13:00:06;10.00;;;4.50;;
18883;SDS011;9574;47.282;9.640;2022-10-30T13:02:40;9.32;;;5.53;;
18883;SDS011;9574;47.282;9.640;2022-10-30T13:05:17;6.88;;;5.22;;
18883;SDS011;9574;47.282;9.640;2022-10-30T13:07:57;8.43;;;5.03;;
18883;SDS011;9574;47.282;9.640;2022-10-30T13:10:30;8.32;;;4.50;;
18883;SDS011;9574;47.282;9.640;2022-10-30T13:13:04;7.60;;;5.07;;
18883;SDS011;9574;47.282;9.640;2022-10-30T13:15:36;10.27;;;5.53;;
18883;SDS011;9574;47.282;9.640;2022-10-30T13:18:11;11.15;;;4.75;;
18883;SDS011;9574;47.282;9.640;2022-10-30T13:20:41;9.90;;;5.53;;
18883;SDS011;9574;47.282;9.640;2022-10-30T13:23:16;8.20;;;4.55;;
18883;SDS011;9574;47.282;9.640;2022-10-30T13:25:51;9.35;;;5.72;;
18883;SDS011;9574;47.282;9.640;2022-10-30T13:28:27;9.45;;;5.95;;
18883;SDS011;9574;47.282;9.640;2022-10-30T13:31:06;9.48;;;5.43;;
18883;SDS011;9574;47.282;9.640;2022-10-30T13:33:43;10.40;;;5.70;;
18883;SDS011;9574;47.282;9.640;2022-10-30T13:36:17;7.93;;;5.60;;
18883;SDS011;9574;47.282;9.640;2022-10-30T13:38:52;8.70;;;5.63;;
18883;SDS011;9574;47.282;9.640;2022-10-30T13:41:28;9.95;;;5.72;;
18883;SDS011;9574;47.282;9.640;2022-10-30T13:44:02;9.13;;;5.78;;
18883;SDS011;9574;47.282;9.640;2022-10-30T13:46:42;9.80;;;6.00;;
18883;SDS011;9574;47.282;9.640;2022-10-30T13:49:24;8.45;;;5.63;;
18883;SDS011;9574;47.282;9.640;2022-10-30T13:52:09;8.57;;;5.40;;
18883;SDS011;9574;47.282;9.640;2022-10-30T13:54:41;6.72;;;5.22;;
18883;SDS011;9574;47.282;9.640;2022-10-30T13:57:14;11.57;;;5.78;;
18883;SDS011;9574;47.282;9.640;2022-10-30T13:59:52;7.30;;;5.43;;
18883;SDS011;9574;47.282;9.640;2022-10-30T14:02:33;14.35;;;6.55;;
18883;SDS011;9574;47.282;9.640;2022-10-30T14:05:13;11.35;;;6.55;;
18883;SDS011;9574;47.282;9.640;2022-10-30T14:07:49;6.93;;;5.50;;
18883;SDS011;9574;47.282;9.640;2022-10-30T14:10:25;9.82;;;5.57;;
18883;SDS011;9574;47.282;9.640;2022-10-30T14:13:06;8.38;;;5.65;;
18883;SDS011;9574;47.282;9.640;2022-10-30T14:15:41;9.32;;;5.55;;
18883;SDS011;9574;47.282;9.640;2022-10-30T14:18:28;8.02;;;5.18;;
18883;SDS011;9574;47.282;9.640;2022-10-30T14:20:58;10.05;;;5.70;;
18883;SDS011;9574;47.282;9.640;2022-10-30T14:23:45;9.27;;;5.40;;
18883;SDS011;9574;47.282;9.640;2022-10-30T14:26:22;8.60;;;5.50;;
18883;SDS011;9574;47.282;9.640;2022-10-30T14:28:51;9.85;;;5.68;;
18883;SDS011;9574;47.282;9.640;2022-10-30T14:31:31;10.27;;;5.85;;
18883;SDS011;9574;47.282;9.640;2022-10-30T14:33:59;11.93;;;5.70;;
18883;SDS011;9574;47.282;9.640;2022-10-30T14:39:26;10.52;;;5.35;;
18883;SDS011;9574;47.282;9.640;2022-10-30T14:41:59;9.57;;;5.07;;
18883;SDS011;9574;47.282;9.640;2022-10-30T14:47:43;8.75;;;4.88;;
18883;SDS011;9574;47.282;9.640;2022-10-30T14:50:28;9.95;;;5.93;;
18883;SDS011;9574;47.282;9.640;2022-10-30T14:53:03;10.00;;;5.72;;
18883;SDS011;9574;47.282;9.640;2022-10-30T14:55:47;7.82;;;5.35;;
18883;SDS011;9574;47.282;9.640;2022-10-30T14:58:22;11.23;;;5.68;;
18883;SDS011;9574;47.282;9.640;2022-10-30T15:00:52;9.40;;;6.13;;
18883;SDS011;9574;47.282;9.640;2022-10-30T15:03:38;11.85;;;5.78;;
18883;SDS011;9574;47.282;9.640;2022-10-30T15:06:15;15.63;;;6.18;;
18883;SDS011;9574;47.282;9.640;2022-10-30T15:08:55;15.75;;;6.72;;
18883;SDS011;9574;47.282;9.640;2022-10-30T15:11:44;10.77;;;6.45;;
18883;SDS011;9574;47.282;9.640;2022-10-30T15:14:29;10.18;;;5.80;;
18883;SDS011;9574;47.282;9.640;2022-10-30T15:16:58;15.68;;;8.15;;
18883;SDS011;9574;47.282;9.640;2022-10-30T15:19:25;10.75;;;6.32;;
18883;SDS011;9574;47.282;9.640;2022-10-30T15:21:54;14.10;;;7.13;;
18883;SDS011;9574;47.282;9.640;2022-10-30T15:24:25;15.98;;;7.00;;
18883;SDS011;9574;47.282;9.640;2022-10-30T15:26:55;13.02;;;7.63;;
18883;SDS011;9574;47.282;9.640;2022-10-30T15:29:24;15.68;;;7.03;;
18883;SDS011;9574;47.282;9.640;2022-10-30T15:32:00;17.13;;;8.27;;
18883;SDS011;9574;47.282;9.640;2022-10-30T15:34:30;13.43;;;7.20;;
18883;SDS011;9574;47.282;9.640;2022-10-30T15:36:58;14.82;;;8.48;;
18883;SDS011;9574;47.282;9.640;2022-10-30T15:39:25;19.25;;;7.90;;